sensor_id;sensor_type;location;lat;lon;timestamp;P1;durP1;ratioP1;P2;durP2;ratioP2
52542;SDS011;38449;52.696;6.186;2024-03-07T00:01:37;40.83;;;24.02;;
52542;SDS011;38449;52.696;6.186;2024-03-07T00:04:04;41.35;;;23.98;;
52542;SDS011;38449;52.696;6.186;2024-03-07T00:06:30;44.70;;;23.20;;
52542;SDS011;38449;52.696;6.186;2024-03-07T00:08:57;38.42;;;23.55;;
52542;SDS011;38449;52.696;6.186;2024-03-07T00:11:24;40.20;;;23.23;;
52542;SDS011;38449;52.696;6.186;2024-03-07T00:13:50;42.15;;;24.70;;
52542;SDS011;38449;52.696;6.186;2024-03-07T00:16:16;39.92;;;23.35;;
52542;SDS011;38449;52.696;6.186;2024-03-07T00:18:43;44.80;;;24.00;;
52542;SDS011;38449;52.696;6.186;2024-03-07T00:21:09;42.13;;;24.05;;
52542;SDS011;38449;52.696;6.186;2024-03-07T00:23:35;39.60;;;23.70;;
52542;SDS011;38449;52.696;6.186;2024-03-07T00:26:01;36.78;;;22.02;;
52542;SDS011;38449;52.696;6.186;2024-03-07T00:28:29;39.67;;;23.80;;
52542;SDS011;38449;52.696;6.186;2024-03-07T00:30:58;39.10;;;23.73;;
52542;SDS011;38449;52.696;6.186;2024-03-07T00:33:24;37.85;;;23.33;;
52542;SDS011;38449;52.696;6.186;2024-03-07T00:35:53;42.63;;;24.13;;
52542;SDS011;38449;52.696;6.186;2024-03-07T00:38:19;40.03;;;22.58;;
52542;SDS011;38449;52.696;6.186;2024-03-07T00:40:46;42.42;;;22.98;;
52542;SDS011;38449;52.696;6.186;2024-03-07T00:43:12;39.45;;;23.42;;
52542;SDS011;38449;52.696;6.186;2024-03-07T00:45:39;39.15;;;23.77;;
52542;SDS011;38449;52.696;6.186;2024-03-07T00:48:07;39.10;;;22.70;;
52542;SDS011;38449;52.696;6.186;2024-03-07T00:50:33;39.58;;;23.73;;
52542;SDS011;38449;52.696;6.186;2024-03-07T00:53:00;36.92;;;23.42;;
52542;SDS011;38449;52.696;6.186;2024-03-07T00:55:27;44.80;;;25.98;;
52542;SDS011;38449;52.696;6.186;2024-03-07T00:57:54;37.75;;;22.02;;
52542;SDS011;38449;52.696;6.186;2024-03-07T01:00:21;40.72;;;24.13;;
52542;SDS011;38449;52.696;6.186;2024-03-07T01:02:47;41.17;;;24.00;;
52542;SDS011;38449;52.696;6.186;2024-03-07T01:05:13;40.30;;;23.70;;
52542;SDS011;38449;52.696;6.186;2024-03-07T01:07:40;42.58;;;24.40;;
52542;SDS011;38449;52.696;6.186;2024-03-07T01:10:07;38.85;;;23.30;;
52542;SDS011;38449;52.696;6.186;2024-03-07T01:12:36;45.65;;;24.90;;
52542;SDS011;38449;52.696;6.186;2024-03-07T01:15:02;38.15;;;23.67;;
52542;SDS011;38449;52.696;6.186;2024-03-07T01:17:32;40.17;;;24.27;;
52542;SDS011;38449;52.696;6.186;2024-03-07T01:19:59;41.25;;;24.45;;
52542;SDS011;38449;52.696;6.186;2024-03-07T01:22:26;46.30;;;25.90;;
52542;SDS011;38449;52.696;6.186;2024-03-07T01:24:52;44.33;;;24.10;;
52542;SDS011;38449;52.696;6.186;2024-03-07T01:27:20;41.78;;;25.15;;
52542;SDS011;38449;52.696;6.186;2024-03-07T01:29:46;40.40;;;25.45;;
52542;SDS011;38449;52.696;6.186;2024-03-07T01:32:14;42.90;;;25.15;;
52542;SDS011;38449;52.696;6.186;2024-03-07T01:34:40;44.70;;;25.90;;
52542;SDS011;38449;52.696;6.186;2024-03-07T01:37:06;43.28;;;25.63;;
52542;SDS011;38449;52.696;6.186;2024-03-07T01:39:34;47.17;;;24.60;;
52542;SDS011;38449;52.696;6.186;2024-03-07T01:42:01;46.10;;;25.27;;
52542;SDS011;38449;52.696;6.186;2024-03-07T01:44:28;42.92;;;24.55;;
52542;SDS011;38449;52.696;6.186;2024-03-07T01:46:57;45.47;;;25.58;;
52542;SDS011;38449;52.696;6.186;2024-03-07T01:49:30;43.88;;;25.45;;
52542;SDS011;38449;52.696;6.186;2024-03-07T01:51:57;44.53;;;26.08;;
52542;SDS011;38449;52.696;6.186;2024-03-07T01:54:24;42.95;;;25.90;;
52542;SDS011;38449;52.696;6.186;2024-03-07T01:56:52;44.83;;;24.45;;
52542;SDS011;38449;52.696;6.186;2024-03-07T01:59:19;43.40;;;25.23;;
52542;SDS011;38449;52.696;6.186;2024-03-07T02:01:46;41.47;;;25.05;;
52542;SDS011;38449;52.696;6.186;2024-03-07T02:04:13;40.42;;;25.33;;
52542;SDS011;38449;52.696;6.186;2024-03-07T02:06:40;39.33;;;24.73;;
52542;SDS011;38449;52.696;6.186;2024-03-07T02:09:09;40.38;;;23.27;;
52542;SDS011;38449;52.696;6.186;2024-03-07T02:11:35;39.20;;;25.05;;
52542;SDS011;38449;52.696;6.186;2024-03-07T02:14:01;45.08;;;25.88;;
52542;SDS011;38449;52.696;6.186;2024-03-07T02:16:29;35.47;;;21.58;;
52542;SDS011;38449;52.696;6.186;2024-03-07T02:18:57;34.50;;;22.60;;
52542;SDS011;38449;52.696;6.186;2024-03-07T02:21:25;40.83;;;23.85;;
52542;SDS011;38449;52.696;6.186;2024-03-07T02:23:54;41.70;;;24.02;;
52542;SDS011;38449;52.696;6.186;2024-03-07T02:26:21;37.03;;;23.45;;
52542;SDS011;38449;52.696;6.186;2024-03-07T02:28:47;41.45;;;23.85;;
52542;SDS011;38449;52.696;6.186;2024-03-07T02:31:14;35.70;;;22.25;;
52542;SDS011;38449;52.696;6.186;2024-03-07T02:33:40;38.67;;;22.95;;
52542;SDS011;38449;52.696;6.186;2024-03-07T02:36:07;38.88;;;21.92;;
52542;SDS011;38449;52.696;6.186;2024-03-07T02:38:33;37.40;;;24.23;;
52542;SDS011;38449;52.696;6.186;2024-03-07T02:41:01;35.05;;;21.33;;
52542;SDS011;38449;52.696;6.186;2024-03-07T02:43:28;30.83;;;19.67;;
52542;SDS011;38449;52.696;6.186;2024-03-07T02:45:54;35.55;;;21.95;;
52542;SDS011;38449;52.696;6.186;2024-03-07T02:48:21;35.13;;;21.85;;
52542;SDS011;38449;52.696;6.186;2024-03-07T02:50:47;33.35;;;21.27;;
52542;SDS011;38449;52.696;6.186;2024-03-07T02:53:13;33.85;;;22.35;;
52542;SDS011;38449;52.696;6.186;2024-03-07T02:55:40;33.03;;;20.73;;
52542;SDS011;38449;52.696;6.186;2024-03-07T02:58:07;34.08;;;21.98;;
52542;SDS011;38449;52.696;6.186;2024-03-07T03:00:34;32.88;;;20.50;;
52542;SDS011;38449;52.696;6.186;2024-03-07T03:03:01;34.60;;;22.27;;
52542;SDS011;38449;52.696;6.186;2024-03-07T03:05:29;31.33;;;20.52;;
52542;SDS011;38449;52.696;6.186;2024-03-07T03:07:55;31.75;;;20.02;;
52542;SDS011;38449;52.696;6.186;2024-03-07T03:10:22;31.85;;;19.10;;
52542;SDS011;38449;52.696;6.186;2024-03-07T03:12:54;29.38;;;20.88;;
52542;SDS011;38449;52.696;6.186;2024-03-07T03:15:25;29.80;;;20.15;;
52542;SDS011;38449;52.696;6.186;2024-03-07T03:17:52;30.05;;;18.88;;
52542;SDS011;38449;52.696;6.186;2024-03-07T03:20:18;29.00;;;20.27;;
52542;SDS011;38449;52.696;6.186;2024-03-07T03:22:51;32.40;;;19.48;;
52542;SDS011;38449;52.696;6.186;2024-03-07T03:25:18;30.52;;;19.23;;
52542;SDS011;38449;52.696;6.186;2024-03-07T03:27:50;32.20;;;18.92;;
52542;SDS011;38449;52.696;6.186;2024-03-07T03:30:16;29.75;;;18.67;;
52542;SDS011;38449;52.696;6.186;2024-03-07T03:32:47;29.75;;;19.50;;
52542;SDS011;38449;52.696;6.186;2024-03-07T03:35:14;32.05;;;20.20;;
52542;SDS011;38449;52.696;6.186;2024-03-07T03:37:44;29.25;;;19.27;;
52542;SDS011;38449;52.696;6.186;2024-03-07T03:40:11;28.65;;;18.55;;
52542;SDS011;38449;52.696;6.186;2024-03-07T03:42:41;25.42;;;17.48;;
52542;SDS011;38449;52.696;6.186;2024-03-07T03:45:09;29.08;;;19.25;;
52542;SDS011;38449;52.696;6.186;2024-03-07T03:47:40;28.52;;;19.23;;
52542;SDS011;38449;52.696;6.186;2024-03-07T03:50:07;28.08;;;18.00;;
52542;SDS011;38449;52.696;6.186;2024-03-07T03:52:35;25.95;;;17.70;;
52542;SDS011;38449;52.696;6.186;2024-03-07T03:55:02;25.52;;;16.83;;
52542;SDS011;38449;52.696;6.186;2024-03-07T03:57:33;25.58;;;17.35;;
52542;SDS011;38449;52.696;6.186;2024-03-07T03:59:59;24.05;;;16.13;;
52542;SDS011;38449;52.696;6.186;2024-03-07T04:02:25;29.25;;;17.58;;
52542;SDS011;38449;52.696;6.186;2024-03-07T04:04:55;25.27;;;16.58;;
52542;SDS011;38449;52.696;6.186;2024-03-07T04:07:21;27.00;;;19.30;;
52542;SDS011;38449;52.696;6.186;2024-03-07T04:09:47;25.98;;;17.48;;
52542;SDS011;38449;52.696;6.186;2024-03-07T04:12:14;27.55;;;16.35;;
52542;SDS011;38449;52.696;6.186;2024-03-07T04:14:41;24.33;;;17.40;;
52542;SDS011;38449;52.696;6.186;2024-03-07T04:17:10;23.60;;;16.33;;
52542;SDS011;38449;52.696;6.186;2024-03-07T04:19:39;23.95;;;17.65;;
52542;SDS011;38449;52.696;6.186;2024-03-07T04:22:07;25.83;;;16.77;;
52542;SDS011;38449;52.696;6.186;2024-03-07T04:24:34;27.20;;;17.15;;
52542;SDS011;38449;52.696;6.186;2024-03-07T04:27:01;26.25;;;16.77;;
52542;SDS011;38449;52.696;6.186;2024-03-07T04:29:30;25.45;;;15.32;;
52542;SDS011;38449;52.696;6.186;2024-03-07T04:31:57;26.65;;;17.33;;
52542;SDS011;38449;52.696;6.186;2024-03-07T04:34:25;25.95;;;16.83;;
52542;SDS011;38449;52.696;6.186;2024-03-07T04:36:52;24.10;;;17.55;;
52542;SDS011;38449;52.696;6.186;2024-03-07T04:39:19;27.73;;;16.35;;
52542;SDS011;38449;52.696;6.186;2024-03-07T04:42:05;25.58;;;15.77;;
52542;SDS011;38449;52.696;6.186;2024-03-07T04:44:32;24.15;;;14.77;;
52542;SDS011;38449;52.696;6.186;2024-03-07T04:47:01;25.73;;;15.27;;
52542;SDS011;38449;52.696;6.186;2024-03-07T04:49:30;24.65;;;17.40;;
52542;SDS011;38449;52.696;6.186;2024-03-07T04:51:57;23.52;;;16.13;;
52542;SDS011;38449;52.696;6.186;2024-03-07T04:54:26;24.42;;;17.52;;
52542;SDS011;38449;52.696;6.186;2024-03-07T04:56:53;24.30;;;16.20;;
52542;SDS011;38449;52.696;6.186;2024-03-07T04:59:20;27.63;;;17.15;;
52542;SDS011;38449;52.696;6.186;2024-03-07T05:01:47;25.83;;;17.80;;
52542;SDS011;38449;52.696;6.186;2024-03-07T05:04:16;24.02;;;15.57;;
52542;SDS011;38449;52.696;6.186;2024-03-07T05:06:43;26.25;;;16.48;;
52542;SDS011;38449;52.696;6.186;2024-03-07T05:09:10;24.65;;;17.20;;
52542;SDS011;38449;52.696;6.186;2024-03-07T05:11:49;24.90;;;16.23;;
52542;SDS011;38449;52.696;6.186;2024-03-07T05:14:18;25.13;;;16.92;;
52542;SDS011;38449;52.696;6.186;2024-03-07T05:16:46;23.17;;;15.75;;
52542;SDS011;38449;52.696;6.186;2024-03-07T05:19:29;24.08;;;15.02;;
52542;SDS011;38449;52.696;6.186;2024-03-07T05:21:55;27.38;;;17.00;;
52542;SDS011;38449;52.696;6.186;2024-03-07T05:24:23;24.15;;;16.20;;
52542;SDS011;38449;52.696;6.186;2024-03-07T05:26:49;22.55;;;16.90;;
52542;SDS011;38449;52.696;6.186;2024-03-07T05:29:18;25.90;;;18.20;;
52542;SDS011;38449;52.696;6.186;2024-03-07T05:31:44;27.02;;;17.23;;
52542;SDS011;38449;52.696;6.186;2024-03-07T05:34:13;24.40;;;17.23;;
52542;SDS011;38449;52.696;6.186;2024-03-07T05:36:40;25.60;;;17.50;;
52542;SDS011;38449;52.696;6.186;2024-03-07T05:39:12;26.75;;;17.27;;
52542;SDS011;38449;52.696;6.186;2024-03-07T05:41:40;26.25;;;17.85;;
52542;SDS011;38449;52.696;6.186;2024-03-07T05:44:08;29.08;;;18.33;;
52542;SDS011;38449;52.696;6.186;2024-03-07T05:49:10;23.38;;;16.77;;
52542;SDS011;38449;52.696;6.186;2024-03-07T05:51:36;24.40;;;16.73;;
52542;SDS011;38449;52.696;6.186;2024-03-07T05:54:03;25.85;;;17.25;;
52542;SDS011;38449;52.696;6.186;2024-03-07T05:56:35;24.98;;;17.55;;
52542;SDS011;38449;52.696;6.186;2024-03-07T05:59:03;26.38;;;17.13;;
52542;SDS011;38449;52.696;6.186;2024-03-07T06:01:37;25.63;;;18.15;;
52542;SDS011;38449;52.696;6.186;2024-03-07T06:04:04;25.02;;;17.52;;
52542;SDS011;38449;52.696;6.186;2024-03-07T06:06:31;27.58;;;16.38;;
52542;SDS011;38449;52.696;6.186;2024-03-07T06:09:03;23.92;;;17.52;;
52542;SDS011;38449;52.696;6.186;2024-03-07T06:11:36;26.20;;;17.45;;
52542;SDS011;38449;52.696;6.186;2024-03-07T06:14:04;23.08;;;16.08;;
52542;SDS011;38449;52.696;6.186;2024-03-07T06:16:33;27.40;;;17.63;;
52542;SDS011;38449;52.696;6.186;2024-03-07T06:19:01;24.20;;;15.75;;
52542;SDS011;38449;52.696;6.186;2024-03-07T06:21:29;27.13;;;18.05;;
52542;SDS011;38449;52.696;6.186;2024-03-07T06:24:00;27.10;;;18.50;;
52542;SDS011;38449;52.696;6.186;2024-03-07T06:26:28;24.60;;;17.65;;
52542;SDS011;38449;52.696;6.186;2024-03-07T06:29:10;23.45;;;16.58;;
52542;SDS011;38449;52.696;6.186;2024-03-07T06:31:42;28.10;;;17.05;;
52542;SDS011;38449;52.696;6.186;2024-03-07T06:34:09;24.33;;;18.40;;
52542;SDS011;38449;52.696;6.186;2024-03-07T06:36:35;25.80;;;17.52;;
52542;SDS011;38449;52.696;6.186;2024-03-07T06:39:02;24.08;;;18.02;;
52542;SDS011;38449;52.696;6.186;2024-03-07T06:41:32;22.83;;;17.35;;
52542;SDS011;38449;52.696;6.186;2024-03-07T06:43:59;25.30;;;18.35;;
52542;SDS011;38449;52.696;6.186;2024-03-07T06:46:26;26.00;;;16.85;;
52542;SDS011;38449;52.696;6.186;2024-03-07T06:48:52;26.17;;;17.40;;
52542;SDS011;38449;52.696;6.186;2024-03-07T06:51:19;25.42;;;17.52;;
52542;SDS011;38449;52.696;6.186;2024-03-07T06:53:46;25.13;;;16.67;;
52542;SDS011;38449;52.696;6.186;2024-03-07T06:56:16;24.08;;;16.02;;
52542;SDS011;38449;52.696;6.186;2024-03-07T06:58:42;22.60;;;16.73;;
52542;SDS011;38449;52.696;6.186;2024-03-07T07:01:11;23.35;;;17.02;;
52542;SDS011;38449;52.696;6.186;2024-03-07T07:03:41;25.58;;;16.13;;
52542;SDS011;38449;52.696;6.186;2024-03-07T07:06:14;24.58;;;18.02;;
52542;SDS011;38449;52.696;6.186;2024-03-07T07:08:40;25.50;;;15.77;;
52542;SDS011;38449;52.696;6.186;2024-03-07T07:11:07;23.55;;;16.75;;
52542;SDS011;38449;52.696;6.186;2024-03-07T07:13:33;23.60;;;16.58;;
52542;SDS011;38449;52.696;6.186;2024-03-07T07:16:00;23.90;;;17.23;;
52542;SDS011;38449;52.696;6.186;2024-03-07T07:18:26;22.70;;;15.93;;
52542;SDS011;38449;52.696;6.186;2024-03-07T07:20:56;22.17;;;15.88;;
52542;SDS011;38449;52.696;6.186;2024-03-07T07:23:24;23.35;;;15.25;;
52542;SDS011;38449;52.696;6.186;2024-03-07T07:25:53;22.05;;;14.68;;
52542;SDS011;38449;52.696;6.186;2024-03-07T07:28:19;22.02;;;16.73;;
52542;SDS011;38449;52.696;6.186;2024-03-07T07:30:47;22.38;;;15.50;;
52542;SDS011;38449;52.696;6.186;2024-03-07T07:33:14;25.88;;;18.17;;
52542;SDS011;38449;52.696;6.186;2024-03-07T07:35:42;21.42;;;14.77;;
52542;SDS011;38449;52.696;6.186;2024-03-07T07:38:08;22.20;;;15.30;;
52542;SDS011;38449;52.696;6.186;2024-03-07T07:40:36;23.50;;;14.20;;
52542;SDS011;38449;52.696;6.186;2024-03-07T07:43:03;21.90;;;15.35;;
52542;SDS011;38449;52.696;6.186;2024-03-07T07:45:32;23.67;;;16.33;;
52542;SDS011;38449;52.696;6.186;2024-03-07T07:48:04;24.02;;;16.40;;
52542;SDS011;38449;52.696;6.186;2024-03-07T07:50:30;22.00;;;16.17;;
52542;SDS011;38449;52.696;6.186;2024-03-07T07:53:00;23.50;;;16.83;;
52542;SDS011;38449;52.696;6.186;2024-03-07T07:55:27;23.13;;;16.02;;
52542;SDS011;38449;52.696;6.186;2024-03-07T07:57:57;21.23;;;15.85;;
52542;SDS011;38449;52.696;6.186;2024-03-07T08:00:25;24.00;;;17.08;;
52542;SDS011;38449;52.696;6.186;2024-03-07T08:05:27;22.73;;;15.13;;
52542;SDS011;38449;52.696;6.186;2024-03-07T08:08:01;20.65;;;15.60;;
52542;SDS011;38449;52.696;6.186;2024-03-07T08:10:39;21.75;;;14.95;;
52542;SDS011;38449;52.696;6.186;2024-03-07T08:13:08;21.88;;;15.52;;
52542;SDS011;38449;52.696;6.186;2024-03-07T08:15:36;23.00;;;15.32;;
52542;SDS011;38449;52.696;6.186;2024-03-07T08:18:06;19.42;;;15.43;;
52542;SDS011;38449;52.696;6.186;2024-03-07T08:20:36;21.88;;;15.60;;
52542;SDS011;38449;52.696;6.186;2024-03-07T08:23:04;21.10;;;15.32;;
52542;SDS011;38449;52.696;6.186;2024-03-07T08:25:30;23.13;;;15.25;;
52542;SDS011;38449;52.696;6.186;2024-03-07T08:27:57;20.35;;;15.00;;
52542;SDS011;38449;52.696;6.186;2024-03-07T08:30:24;23.00;;;14.27;;
52542;SDS011;38449;52.696;6.186;2024-03-07T08:32:52;22.33;;;14.90;;
52542;SDS011;38449;52.696;6.186;2024-03-07T08:35:20;20.95;;;15.77;;
52542;SDS011;38449;52.696;6.186;2024-03-07T08:37:48;21.77;;;14.95;;
52542;SDS011;38449;52.696;6.186;2024-03-07T08:40:19;22.02;;;14.93;;
52542;SDS011;38449;52.696;6.186;2024-03-07T08:42:47;20.80;;;15.18;;
52542;SDS011;38449;52.696;6.186;2024-03-07T08:45:17;21.55;;;15.13;;
52542;SDS011;38449;52.696;6.186;2024-03-07T08:47:48;20.85;;;15.93;;
52542;SDS011;38449;52.696;6.186;2024-03-07T08:50:17;21.33;;;15.10;;
52542;SDS011;38449;52.696;6.186;2024-03-07T08:52:44;19.45;;;14.25;;
52542;SDS011;38449;52.696;6.186;2024-03-07T08:55:12;21.95;;;15.82;;
52542;SDS011;38449;52.696;6.186;2024-03-07T08:57:40;19.33;;;15.57;;
52542;SDS011;38449;52.696;6.186;2024-03-07T09:00:07;22.80;;;16.02;;
52542;SDS011;38449;52.696;6.186;2024-03-07T09:02:35;21.15;;;14.43;;
52542;SDS011;38449;52.696;6.186;2024-03-07T09:05:09;22.92;;;16.10;;
52542;SDS011;38449;52.696;6.186;2024-03-07T09:07:39;21.45;;;16.70;;
52542;SDS011;38449;52.696;6.186;2024-03-07T09:10:06;22.55;;;16.65;;
52542;SDS011;38449;52.696;6.186;2024-03-07T09:12:33;19.63;;;15.27;;
52542;SDS011;38449;52.696;6.186;2024-03-07T09:15:00;20.70;;;15.40;;
52542;SDS011;38449;52.696;6.186;2024-03-07T09:17:26;21.23;;;15.82;;
52542;SDS011;38449;52.696;6.186;2024-03-07T09:19:53;21.67;;;14.93;;
52542;SDS011;38449;52.696;6.186;2024-03-07T09:22:19;23.33;;;17.00;;
52542;SDS011;38449;52.696;6.186;2024-03-07T09:24:47;21.38;;;16.90;;
52542;SDS011;38449;52.696;6.186;2024-03-07T09:27:13;20.70;;;16.48;;
52542;SDS011;38449;52.696;6.186;2024-03-07T09:29:41;23.85;;;17.45;;
52542;SDS011;38449;52.696;6.186;2024-03-07T09:32:07;23.50;;;16.83;;
52542;SDS011;38449;52.696;6.186;2024-03-07T09:34:34;21.80;;;16.27;;
52542;SDS011;38449;52.696;6.186;2024-03-07T09:37:01;23.60;;;17.77;;
52542;SDS011;38449;52.696;6.186;2024-03-07T09:39:29;22.92;;;17.85;;
52542;SDS011;38449;52.696;6.186;2024-03-07T09:41:57;25.98;;;19.33;;
52542;SDS011;38449;52.696;6.186;2024-03-07T09:44:23;29.52;;;21.75;;
52542;SDS011;38449;52.696;6.186;2024-03-07T09:46:55;30.80;;;23.60;;
52542;SDS011;38449;52.696;6.186;2024-03-07T09:49:25;26.25;;;20.90;;
52542;SDS011;38449;52.696;6.186;2024-03-07T09:51:55;31.00;;;22.20;;
52542;SDS011;38449;52.696;6.186;2024-03-07T09:54:25;28.85;;;20.65;;
52542;SDS011;38449;52.696;6.186;2024-03-07T09:56:53;30.40;;;21.60;;
52542;SDS011;38449;52.696;6.186;2024-03-07T09:59:20;29.48;;;20.15;;
52542;SDS011;38449;52.696;6.186;2024-03-07T10:01:54;32.80;;;23.42;;
52542;SDS011;38449;52.696;6.186;2024-03-07T10:04:27;30.73;;;19.08;;
52542;SDS011;38449;52.696;6.186;2024-03-07T10:06:57;30.98;;;20.48;;
52542;SDS011;38449;52.696;6.186;2024-03-07T10:09:26;31.25;;;21.65;;
52542;SDS011;38449;52.696;6.186;2024-03-07T10:11:56;30.25;;;20.08;;
52542;SDS011;38449;52.696;6.186;2024-03-07T10:14:31;28.00;;;19.85;;
52542;SDS011;38449;52.696;6.186;2024-03-07T10:16:58;23.90;;;17.40;;
52542;SDS011;38449;52.696;6.186;2024-03-07T10:19:25;27.17;;;19.33;;
52542;SDS011;38449;52.696;6.186;2024-03-07T10:21:54;30.55;;;21.27;;
52542;SDS011;38449;52.696;6.186;2024-03-07T10:24:25;29.80;;;19.27;;
52542;SDS011;38449;52.696;6.186;2024-03-07T10:26:51;31.17;;;20.92;;
52542;SDS011;38449;52.696;6.186;2024-03-07T10:29:19;29.27;;;19.30;;
52542;SDS011;38449;52.696;6.186;2024-03-07T10:31:46;29.27;;;20.42;;
52542;SDS011;38449;52.696;6.186;2024-03-07T10:34:14;26.77;;;19.13;;
52542;SDS011;38449;52.696;6.186;2024-03-07T10:36:42;26.25;;;17.40;;
52542;SDS011;38449;52.696;6.186;2024-03-07T10:39:10;27.85;;;18.15;;
52542;SDS011;38449;52.696;6.186;2024-03-07T10:41:48;28.88;;;18.67;;
52542;SDS011;38449;52.696;6.186;2024-03-07T10:44:19;30.27;;;18.13;;
52542;SDS011;38449;52.696;6.186;2024-03-07T10:46:54;27.73;;;19.40;;
52542;SDS011;38449;52.696;6.186;2024-03-07T10:49:21;28.40;;;18.88;;
52542;SDS011;38449;52.696;6.186;2024-03-07T10:51:54;27.70;;;18.23;;
52542;SDS011;38449;52.696;6.186;2024-03-07T10:54:48;26.95;;;16.52;;
52542;SDS011;38449;52.696;6.186;2024-03-07T10:59:59;26.92;;;17.08;;
52542;SDS011;38449;52.696;6.186;2024-03-07T11:02:42;30.55;;;19.20;;
52542;SDS011;38449;52.696;6.186;2024-03-07T11:05:13;29.13;;;19.25;;
52542;SDS011;38449;52.696;6.186;2024-03-07T11:07:41;28.35;;;18.50;;
52542;SDS011;38449;52.696;6.186;2024-03-07T11:10:12;28.13;;;19.95;;
52542;SDS011;38449;52.696;6.186;2024-03-07T11:12:39;27.45;;;17.95;;
52542;SDS011;38449;52.696;6.186;2024-03-07T11:15:08;29.52;;;18.40;;
52542;SDS011;38449;52.696;6.186;2024-03-07T11:17:41;26.88;;;16.40;;
52542;SDS011;38449;52.696;6.186;2024-03-07T11:20:22;28.15;;;17.30;;
52542;SDS011;38449;52.696;6.186;2024-03-07T11:22:49;27.13;;;17.98;;
52542;SDS011;38449;52.696;6.186;2024-03-07T11:25:20;27.75;;;18.65;;
52542;SDS011;38449;52.696;6.186;2024-03-07T11:27:57;24.08;;;15.90;;
52542;SDS011;38449;52.696;6.186;2024-03-07T11:30:25;26.90;;;17.60;;
52542;SDS011;38449;52.696;6.186;2024-03-07T11:32:52;25.15;;;16.88;;
52542;SDS011;38449;52.696;6.186;2024-03-07T11:35:20;25.10;;;16.80;;
52542;SDS011;38449;52.696;6.186;2024-03-07T11:37:57;25.13;;;17.95;;
52542;SDS011;38449;52.696;6.186;2024-03-07T11:42:51;25.45;;;17.20;;
52542;SDS011;38449;52.696;6.186;2024-03-07T11:45:19;26.90;;;17.77;;
52542;SDS011;38449;52.696;6.186;2024-03-07T11:47:56;26.50;;;17.83;;
52542;SDS011;38449;52.696;6.186;2024-03-07T11:50:26;25.30;;;16.42;;
52542;SDS011;38449;52.696;6.186;2024-03-07T11:52:53;26.25;;;16.90;;
52542;SDS011;38449;52.696;6.186;2024-03-07T11:55:23;25.55;;;16.63;;
52542;SDS011;38449;52.696;6.186;2024-03-07T11:57:50;25.27;;;16.00;;
52542;SDS011;38449;52.696;6.186;2024-03-07T12:00:19;26.58;;;16.33;;
52542;SDS011;38449;52.696;6.186;2024-03-07T12:02:49;25.80;;;17.23;;
52542;SDS011;38449;52.696;6.186;2024-03-07T12:05:15;23.98;;;16.35;;
52542;SDS011;38449;52.696;6.186;2024-03-07T12:07:43;26.45;;;15.20;;
52542;SDS011;38449;52.696;6.186;2024-03-07T12:10:09;27.77;;;18.55;;
52542;SDS011;38449;52.696;6.186;2024-03-07T12:12:36;27.65;;;17.52;;
52542;SDS011;38449;52.696;6.186;2024-03-07T12:15:07;25.27;;;16.30;;
52542;SDS011;38449;52.696;6.186;2024-03-07T12:17:51;25.70;;;15.23;;
52542;SDS011;38449;52.696;6.186;2024-03-07T12:20:19;24.45;;;15.77;;
52542;SDS011;38449;52.696;6.186;2024-03-07T12:22:57;24.40;;;15.85;;
52542;SDS011;38449;52.696;6.186;2024-03-07T12:25:29;23.25;;;16.55;;
52542;SDS011;38449;52.696;6.186;2024-03-07T12:27:59;21.80;;;14.45;;
52542;SDS011;38449;52.696;6.186;2024-03-07T12:30:34;23.25;;;15.70;;
52542;SDS011;38449;52.696;6.186;2024-03-07T12:33:03;22.25;;;14.90;;
52542;SDS011;38449;52.696;6.186;2024-03-07T12:35:32;18.98;;;13.10;;
52542;SDS011;38449;52.696;6.186;2024-03-07T12:37:59;22.40;;;14.82;;
52542;SDS011;38449;52.696;6.186;2024-03-07T12:40:26;22.48;;;13.98;;
52542;SDS011;38449;52.696;6.186;2024-03-07T12:42:55;22.13;;;14.73;;
52542;SDS011;38449;52.696;6.186;2024-03-07T12:45:23;20.88;;;14.32;;
52542;SDS011;38449;52.696;6.186;2024-03-07T12:47:52;20.67;;;14.52;;
52542;SDS011;38449;52.696;6.186;2024-03-07T12:50:20;20.50;;;13.95;;
52542;SDS011;38449;52.696;6.186;2024-03-07T12:52:47;17.42;;;13.00;;
52542;SDS011;38449;52.696;6.186;2024-03-07T12:55:19;20.20;;;14.27;;
52542;SDS011;38449;52.696;6.186;2024-03-07T12:57:47;21.17;;;14.68;;
52542;SDS011;38449;52.696;6.186;2024-03-07T13:00:18;20.60;;;13.38;;
52542;SDS011;38449;52.696;6.186;2024-03-07T13:02:49;23.88;;;15.18;;
52542;SDS011;38449;52.696;6.186;2024-03-07T13:05:15;23.67;;;14.75;;
52542;SDS011;38449;52.696;6.186;2024-03-07T13:07:49;22.77;;;14.63;;
52542;SDS011;38449;52.696;6.186;2024-03-07T13:10:15;26.67;;;16.20;;
52542;SDS011;38449;52.696;6.186;2024-03-07T13:12:44;21.27;;;14.15;;
52542;SDS011;38449;52.696;6.186;2024-03-07T13:15:17;23.00;;;15.27;;
52542;SDS011;38449;52.696;6.186;2024-03-07T13:17:44;21.10;;;14.45;;
52542;SDS011;38449;52.696;6.186;2024-03-07T13:20:11;21.52;;;14.32;;
52542;SDS011;38449;52.696;6.186;2024-03-07T13:22:41;21.70;;;15.38;;
52542;SDS011;38449;52.696;6.186;2024-03-07T13:25:42;21.80;;;13.45;;
52542;SDS011;38449;52.696;6.186;2024-03-07T13:28:03;21.35;;;14.05;;
52542;SDS011;38449;52.696;6.186;2024-03-07T13:30:39;22.17;;;14.40;;
52542;SDS011;38449;52.696;6.186;2024-03-07T13:33:07;23.48;;;14.18;;
52542;SDS011;38449;52.696;6.186;2024-03-07T13:35:54;22.05;;;13.63;;
52542;SDS011;38449;52.696;6.186;2024-03-07T13:38:21;20.20;;;13.65;;
52542;SDS011;38449;52.696;6.186;2024-03-07T13:40:48;19.38;;;13.05;;
52542;SDS011;38449;52.696;6.186;2024-03-07T13:43:15;19.38;;;14.23;;
52542;SDS011;38449;52.696;6.186;2024-03-07T13:45:42;19.25;;;12.95;;
52542;SDS011;38449;52.696;6.186;2024-03-07T13:48:10;18.95;;;13.10;;
52542;SDS011;38449;52.696;6.186;2024-03-07T13:50:42;21.40;;;15.25;;
52542;SDS011;38449;52.696;6.186;2024-03-07T13:53:18;20.60;;;14.15;;
52542;SDS011;38449;52.696;6.186;2024-03-07T13:58:35;23.50;;;16.42;;
52542;SDS011;38449;52.696;6.186;2024-03-07T14:07:20;23.15;;;14.95;;
52542;SDS011;38449;52.696;6.186;2024-03-07T14:16:02;24.13;;;15.48;;
52542;SDS011;38449;52.696;6.186;2024-03-07T14:32:36;22.50;;;13.77;;
52542;SDS011;38449;52.696;6.186;2024-03-07T14:37:46;24.15;;;14.85;;
52542;SDS011;38449;52.696;6.186;2024-03-07T14:40:22;23.85;;;16.13;;
52542;SDS011;38449;52.696;6.186;2024-03-07T14:42:50;23.10;;;13.45;;
52542;SDS011;38449;52.696;6.186;2024-03-07T14:45:21;22.80;;;14.90;;
52542;SDS011;38449;52.696;6.186;2024-03-07T14:47:52;24.10;;;14.63;;
52542;SDS011;38449;52.696;6.186;2024-03-07T14:50:20;25.20;;;15.13;;
52542;SDS011;38449;52.696;6.186;2024-03-07T14:52:48;22.27;;;14.10;;
52542;SDS011;38449;52.696;6.186;2024-03-07T14:55:14;23.73;;;14.98;;
52542;SDS011;38449;52.696;6.186;2024-03-07T14:57:44;24.85;;;15.35;;
52542;SDS011;38449;52.696;6.186;2024-03-07T15:00:12;24.50;;;16.25;;
52542;SDS011;38449;52.696;6.186;2024-03-07T15:02:48;26.08;;;15.75;;
52542;SDS011;38449;52.696;6.186;2024-03-07T15:05:15;22.80;;;14.35;;
52542;SDS011;38449;52.696;6.186;2024-03-07T15:07:45;27.05;;;16.08;;
52542;SDS011;38449;52.696;6.186;2024-03-07T15:10:32;28.08;;;15.02;;
52542;SDS011;38449;52.696;6.186;2024-03-07T15:13:00;26.63;;;16.85;;